Time;durP1;ratioP1;P1;durP2;ratioP2;P2;SDS_P1;SDS_P2;PMS_P1;PMS_P2;Temp;Humidity;BMP_temperature;BMP_pressure;BME280_temperature;BME280_humidity;BME280_pressure;Samples;Min_cycle;Max_cycle;Signal;HPM_P1;HPM_P2
2022/07/19 00:00:09;;;;;;;;;;;;;;;-142.75;100.00;76188.44;5092729;28;19912;-67
2022/07/19 00:02:35;;;;;;;;;;;;;;;-142.75;100.00;76196.31;5092787;28;19912;-68
2022/07/19 00:05:00;;;;;;;;;;;;;;;-142.75;100.00;76192.38;5092607;28;19995;-67
2022/07/19 00:07:25;;;;;;;;;;;;;;;-142.75;100.00;76200.25;5092492;28;19912;-67
2022/07/19 00:09:50;;;;;;;;;;;;;;;-142.75;100.00;76210.06;5092321;28;20384;-68
2022/07/19 00:12:16;;;;;;;;;;;;;;;-142.75;100.00;76219.91;5092895;28;20449;-68
2022/07/19 00:14:41;;;;;;;;;;;;;;;-142.75;100.00;76235.66;5092791;28;20015;-68
2022/07/19 00:17:06;;;;;;;;;;;;;;;-142.75;100.00;76239.59;5092247;28;19965;-69
2022/07/19 00:19:31;;;;;;;;;;;;;;;-142.75;100.00;76247.47;5090947;28;19955;-69
2022/07/19 00:21:56;;;;;;;;;;;;;;;-142.75;100.00;76241.56;5091108;28;19916;-68
2022/07/19 00:24:22;;;;;;;;;;;;;;;-142.75;100.00;76237.63;5091037;28;20481;-68
2022/07/19 00:26:47;;;;;;;;;;;;;;;-142.75;100.00;76231.72;5090969;28;19915;-68
2022/07/19 00:29:12;;;;;;;;;;;;;;;-142.75;100.00;76223.84;5092135;28;19923;-68
2022/07/19 00:31:37;;;;;;;;;;;;;;;-142.75;100.00;76217.94;5092358;28;19912;-68
2022/07/19 00:34:03;;;;;;;;;;;;;;;-142.75;100.00;76206.13;5092144;28;20431;-68
2022/07/19 00:36:28;;;;;;;;;;;;;;;-142.75;100.00;76198.28;5092305;28;19973;-68
2022/07/19 00:38:53;;;;;;;;;;;;;;;-142.75;100.00;76192.38;5091978;28;19966;-68
2022/07/19 00:41:19;;;;;;;;;;;;;;;-142.75;100.00;76184.50;5091156;28;19912;-68
2022/07/19 00:43:44;;;;;;;;;;;;;;;-142.75;100.00;76184.50;5092253;28;19912;-68
2022/07/19 00:46:17;;;;;;;;;;;;;;;-142.75;100.00;76182.53;5092014;28;19912;-68
2022/07/19 00:48:42;;;;;;;;;;;;;;;-142.75;100.00;76190.41;5092029;28;19912;-68
2022/07/19 00:51:08;;;;;;;;;;;;;;;-142.75;100.00;76204.16;5092161;28;19912;-68
2022/07/19 00:53:35;;;;;;;;;;;;;;;-142.75;100.00;76219.91;5092030;28;19920;-68
2022/07/19 00:56:02;;;;;;;;;;;;;;;-142.75;100.00;76231.72;5091859;28;19917;-69
2022/07/19 00:58:27;;;;;;;;;;;;;;;-142.75;100.00;76239.59;5090461;28;19919;-69
2022/07/19 01:00:52;;;;;;;;;;;;;;;-142.75;100.00;76247.47;5090662;28;19916;-67
2022/07/19 01:03:18;;;;;;;;;;;;;;;-142.75;100.00;76255.34;5092010;28;20374;-68
2022/07/19 01:05:46;;;;;;;;;;;;;;;-142.75;100.00;76259.28;5091906;28;20297;-68
2022/07/19 01:08:11;;;;;;;;;;;;;;;-142.75;100.00;76271.09;5091663;28;19990;-68
2022/07/19 01:10:37;;;;;;;;;;;;;;;-142.75;100.00;76273.06;5091964;28;19973;-67
2022/07/19 01:13:02;;;;;;;;;;;;;;;-142.75;100.00;76275.03;5090573;28;20336;-68
2022/07/19 01:15:28;;;;;;;;;;;;;;;-142.75;100.00;76273.06;5090471;28;19936;-67
2022/07/19 01:17:53;;;;;;;;;;;;;;;-142.75;100.00;76271.09;5091539;28;19912;-66
2022/07/19 01:20:23;;;;;;;;;;;;;;;-142.75;100.00;76275.03;5091894;28;19922;-68
2022/07/19 01:22:48;;;;;;;;;;;;;;;-142.75;100.00;76275.03;5091813;28;19931;-68
2022/07/19 01:25:13;;;;;;;;;;;;;;;-142.75;100.00;76282.91;5091777;28;19912;-68
2022/07/19 01:27:40;;;;;;;;;;;;;;;-142.75;100.00;76292.75;5091793;28;20006;-68
2022/07/19 01:30:16;;;;;;;;;;;;;;;-142.75;100.00;76302.59;5091473;28;19965;-70
2022/07/19 01:32:41;;;;;;;;;;;;;;;-142.75;100.00;76312.44;5091703;28;19943;-70
2022/07/19 01:35:07;;;;;;;;;;;;;;;-142.75;100.00;76318.34;5091665;28;19975;-70
2022/07/19 01:37:32;;;;;;;;;;;;;;;-142.75;100.00;76332.13;5093245;28;19912;-70
2022/07/19 01:39:58;;;;;;;;;;;;;;;-142.75;100.00;76336.06;5093775;28;19912;-70
2022/07/19 01:42:23;;;;;;;;;;;;;;;-142.75;100.00;76343.94;5093894;28;19998;-70
2022/07/19 01:44:49;;;;;;;;;;;;;;;-142.75;100.00;76343.94;5095184;28;19919;-70
2022/07/19 01:47:14;;;;;;;;;;;;;;;-142.75;100.00;76349.81;5095055;28;19912;-70
2022/07/19 01:49:39;;;;;;;;;;;;;;;-142.75;100.00;76343.94;5094830;28;19913;-71
2022/07/19 01:52:04;;;;;;;;;;;;;;;-142.75;100.00;76336.06;5093782;28;19918;-70
2022/07/19 01:54:29;;;;;;;;;;;;;;;-142.75;100.00;76338.03;5094957;28;19916;-71
2022/07/19 01:56:55;;;;;;;;;;;;;;;-142.75;100.00;76334.09;5094728;28;20357;-70
2022/07/19 01:59:20;;;;;;;;;;;;;;;-142.75;100.00;76330.16;5094806;28;19919;-70
2022/07/19 02:01:45;;;;;;;;;;;;;;;-142.75;100.00;76326.22;5093576;28;19912;-70
2022/07/19 02:04:10;;;;;;;;;;;;;;;-142.75;100.00;76310.47;5094824;28;19913;-70
2022/07/19 02:06:35;;;;;;;;;;;;;;;-142.75;100.00;76304.56;5094657;28;20412;-70
2022/07/19 02:09:01;;;;;;;;;;;;;;;-142.75;100.00;76310.47;5094487;28;19947;-71
2022/07/19 02:11:44;;;;;;;;;;;;;;;-142.75;100.00;76308.50;5094648;28;19934;-70
2022/07/19 02:14:09;;;;;;;;;;;;;;;-142.75;100.00;76304.56;5094619;28;19920;-70
2022/07/19 02:16:35;;;;;;;;;;;;;;;-142.75;100.00;76294.72;5093193;28;19919;-70
2022/07/19 02:19:01;;;;;;;;;;;;;;;-142.75;100.00;76290.78;5094260;28;19912;-70
2022/07/19 02:21:26;;;;;;;;;;;;;;;-142.75;100.00;76296.69;5094527;28;19998;-70
2022/07/19 02:23:51;;;;;;;;;;;;;;;-142.75;100.00;76292.75;5094481;28;19919;-70
2022/07/19 02:26:16;;;;;;;;;;;;;;;-142.75;100.00;76292.75;5092949;28;19912;-71
2022/07/19 02:28:42;;;;;;;;;;;;;;;-142.75;100.00;76288.81;5092824;28;19916;-70
2022/07/19 02:31:07;;;;;;;;;;;;;;;-142.75;100.00;76282.91;5094246;28;19935;-71
2022/07/19 02:33:32;;;;;;;;;;;;;;;-142.75;100.00;76284.88;5094190;28;19927;-70
2022/07/19 02:35:57;;;;;;;;;;;;;;;-142.75;100.00;76296.69;5094123;28;19912;-71
2022/07/19 02:38:23;;;;;;;;;;;;;;;-142.75;100.00;76296.69;5093874;28;20396;-70
2022/07/19 02:40:48;;;;;;;;;;;;;;;-142.75;100.00;76298.66;5094002;28;19912;-68
2022/07/19 02:43:13;;;;;;;;;;;;;;;-142.75;100.00;76294.72;5094124;28;19912;-71
2022/07/19 02:45:39;;;;;;;;;;;;;;;-142.75;100.00;76290.78;5093866;28;19919;-70
2022/07/19 02:48:04;;;;;;;;;;;;;;;-142.75;100.00;76292.75;5092299;28;19947;-70
2022/07/19 02:50:30;;;;;;;;;;;;;;;-142.75;100.00;76296.69;5093926;28;20335;-71
2022/07/19 02:52:55;;;;;;;;;;;;;;;-142.75;100.00;76302.59;5093782;28;19912;-70
2022/07/19 02:55:20;;;;;;;;;;;;;;;-142.75;100.00;76308.50;5093618;28;20381;-70
2022/07/19 02:57:45;;;;;;;;;;;;;;;-142.75;100.00;76316.38;5093652;28;19942;-70
2022/07/19 03:00:12;;;;;;;;;;;;;;;-142.75;100.00;76332.13;5093579;28;19947;-70
2022/07/19 03:02:38;;;;;;;;;;;;;;;-142.75;100.00;76343.94;5093668;28;19919;-70
2022/07/19 03:05:03;;;;;;;;;;;;;;;-142.75;100.00;76353.78;5093641;28;19999;-70
2022/07/19 03:07:28;;;;;;;;;;;;;;;-142.75;100.00;76377.38;5093496;28;20014;-70
2022/07/19 03:09:53;;;;;;;;;;;;;;;-142.75;100.00;76391.16;5093269;28;19912;-69
2022/07/19 03:12:18;;;;;;;;;;;;;;;-142.75;100.00;76401.00;5093518;28;19923;-70
2022/07/19 03:14:44;;;;;;;;;;;;;;;-142.75;100.00;76416.75;5093389;28;19967;-71
2022/07/19 03:17:09;;;;;;;;;;;;;;;-142.75;100.00;76426.59;5092353;28;19919;-70
2022/07/19 03:19:34;;;;;;;;;;;;;;;-142.75;100.00;76436.44;5093091;28;20002;-70
2022/07/19 03:21:59;;;;;;;;;;;;;;;-142.75;100.00;76448.25;5093387;28;20443;-71
2022/07/19 03:24:25;;;;;;;;;;;;;;;-142.75;100.00;76446.28;5093291;28;20008;-70
2022/07/19 03:26:50;;;;;;;;;;;;;;;-142.75;100.00;76442.34;5091920;28;19912;-70
2022/07/19 03:29:15;;;;;;;;;;;;;;;-142.75;100.00;76438.41;5091616;28;19962;-71
2022/07/19 03:31:41;;;;;;;;;;;;;;;-142.75;100.00;76442.34;5093233;28;19919;-71
2022/07/19 03:34:06;;;;;;;;;;;;;;;-142.75;100.00;76426.59;5093028;28;19923;-71
2022/07/19 03:36:32;;;;;;;;;;;;;;;-142.75;100.00;76424.63;5093069;28;19912;-70
2022/07/19 03:38:57;;;;;;;;;;;;;;;-142.75;100.00;76414.78;5092853;28;19919;-70
2022/07/19 03:41:22;;;;;;;;;;;;;;;-142.75;100.00;76408.88;5092954;28;19999;-70
2022/07/19 03:43:47;;;;;;;;;;;;;;;-142.75;100.00;76412.81;5093084;28;19916;-70
2022/07/19 03:46:12;;;;;;;;;;;;;;;-142.75;100.00;76414.78;5092864;28;19971;-70
2022/07/19 03:48:38;;;;;;;;;;;;;;;-142.75;100.00;76422.66;5091393;28;19935;-71
2022/07/19 03:51:03;;;;;;;;;;;;;;;-142.75;100.00;76420.69;5092899;28;19919;-70
2022/07/19 03:53:28;;;;;;;;;;;;;;;-142.75;100.00;76420.69;5092815;28;19923;-70
2022/07/19 03:55:53;;;;;;;;;;;;;;;-142.75;100.00;76420.69;5093722;28;19997;-71
2022/07/19 03:58:18;;;;;;;;;;;;;;;-142.75;100.00;76424.63;5092544;28;20010;-72
2022/07/19 04:00:45;;;;;;;;;;;;;;;-142.75;100.00;76428.56;5092159;28;19912;-71
2022/07/19 04:03:10;;;;;;;;;;;;;;;-142.75;100.00;76434.47;5092765;28;19912;-71
2022/07/19 04:05:35;;;;;;;;;;;;;;;-142.75;100.00;76436.44;5092605;28;20069;-72
2022/07/19 04:08:00;;;;;;;;;;;;;;;-142.75;100.00;76438.41;5091117;28;19919;-71
2022/07/19 04:10:26;;;;;;;;;;;;;;;-142.75;100.00;76436.44;5092574;28;19912;-72
2022/07/19 04:12:51;;;;;;;;;;;;;;;-142.75;100.00;76440.38;5092540;28;20611;-70
2022/07/19 04:15:16;;;;;;;;;;;;;;;-142.75;100.00;76444.31;5091072;28;19922;-71
2022/07/19 04:17:41;;;;;;;;;;;;;;;-142.75;100.00;76452.19;5092354;28;20427;-69
2022/07/19 04:20:07;;;;;;;;;;;;;;;-142.75;100.00;76452.19;5092313;28;20293;-71
2022/07/19 04:22:32;;;;;;;;;;;;;;;-142.75;100.00;76454.16;5092382;28;19916;-71
2022/07/19 04:24:57;;;;;;;;;;;;;;;-142.75;100.00;76444.31;5092312;28;20302;-71
2022/07/19 04:27:23;;;;;;;;;;;;;;;-142.75;100.00;76446.28;5092535;28;19912;-71
2022/07/19 04:29:48;;;;;;;;;;;;;;;-142.75;100.00;76436.44;5092048;28;19918;-70
2022/07/19 04:32:14;;;;;;;;;;;;;;;-142.75;100.00;76438.41;5092380;28;19973;-70
2022/07/19 04:34:39;;;;;;;;;;;;;;;-142.75;100.00;76432.50;5092171;28;19916;-71
2022/07/19 04:37:05;;;;;;;;;;;;;;;-142.75;100.00;76430.53;5091614;28;19920;-70
2022/07/19 04:39:30;;;;;;;;;;;;;;;-142.75;100.00;76420.69;5091346;28;19919;-71
2022/07/19 04:41:55;;;;;;;;;;;;;;;-142.75;100.00;76406.91;5092124;28;19913;-71
2022/07/19 04:44:20;;;;;;;;;;;;;;;-142.75;100.00;76397.06;5092206;28;19923;-71
2022/07/19 04:46:46;;;;;;;;;;;;;;;-142.75;100.00;76397.06;5090838;28;19912;-71
2022/07/19 04:49:11;;;;;;;;;;;;;;;-142.75;100.00;76389.19;5091889;28;19912;-70
2022/07/19 04:51:36;;;;;;;;;;;;;;;-142.75;100.00;76385.25;5092167;28;19937;-71
2022/07/19 04:54:02;;;;;;;;;;;;;;;-142.75;100.00;76381.31;5090442;28;19916;-71
2022/07/19 04:56:27;;;;;;;;;;;;;;;-142.75;100.00;76375.41;5091855;28;19916;-71
2022/07/19 04:58:52;;;;;;;;;;;;;;;-142.75;100.00;76365.56;5091821;28;20373;-71
2022/07/19 05:01:17;;;;;;;;;;;;;;;-142.75;100.00;76353.78;5090791;28;20294;-72
2022/07/19 05:03:42;;;;;;;;;;;;;;;-142.75;100.00;76349.81;5092030;28;20017;-70
2022/07/19 05:06:08;;;;;;;;;;;;;;;-142.75;100.00;76338.03;5091972;28;19912;-71
2022/07/19 05:08:33;;;;;;;;;;;;;;;-142.75;100.00;76326.22;5091675;28;20002;-70
2022/07/19 05:10:58;;;;;;;;;;;;;;;-142.75;100.00;76318.34;5091872;28;19955;-71
2022/07/19 05:13:23;;;;;;;;;;;;;;;-142.75;100.00;76308.50;5094957;28;19916;-71
2022/07/19 05:15:48;;;;;;;;;;;;;;;-142.75;100.00;76302.59;5095719;28;20374;-71
2022/07/19 05:18:14;;;;;;;;;;;;;;;-142.75;100.00;76298.66;5095493;28;19912;-71
2022/07/19 05:20:39;;;;;;;;;;;;;;;-142.75;100.00;76294.72;5095642;28;19912;-71
2022/07/19 05:23:04;;;;;;;;;;;;;;;-142.75;100.00;76286.84;5094375;28;19919;-71
2022/07/19 05:25:29;;;;;;;;;;;;;;;-142.75;100.00;76280.94;5094097;28;19948;-71
2022/07/19 05:27:56;;;;;;;;;;;;;;;-142.75;100.00;76267.16;5095274;28;20324;-71
2022/07/19 05:30:22;;;;;;;;;;;;;;;-142.75;100.00;76253.38;5095524;28;20396;-71
2022/07/19 05:32:47;;;;;;;;;;;;;;;-142.75;100.00;76235.66;5095487;28;19916;-71
2022/07/19 05:35:12;;;;;;;;;;;;;;;-142.75;100.00;76223.84;5093982;28;20408;-71
2022/07/19 05:37:37;;;;;;;;;;;;;;;-142.75;100.00;76200.25;5095284;28;19918;-71
2022/07/19 05:40:03;;;;;;;;;;;;;;;-142.75;100.00;76190.41;5095421;28;19978;-71
2022/07/19 05:42:28;;;;;;;;;;;;;;;-142.75;100.00;76176.63;5095267;28;20381;-71
2022/07/19 05:44:53;;;;;;;;;;;;;;;-142.75;100.00;76160.88;5095242;28;20007;-71
2022/07/19 05:47:18;;;;;;;;;;;;;;;-142.75;100.00;76145.13;5095143;28;19934;-71
2022/07/19 05:49:43;;;;;;;;;;;;;;;-142.75;100.00;76131.34;5094924;28;19916;-70
2022/07/19 05:52:09;;;;;;;;;;;;;;;-142.75;100.00;76117.56;5095075;28;20346;-71
2022/07/19 05:54:34;;;;;;;;;;;;;;;-142.75;100.00;76091.97;5094859;28;19916;-71
2022/07/19 05:56:59;;;;;;;;;;;;;;;-142.75;100.00;76078.19;5094794;28;20305;-71
2022/07/19 05:59:25;;;;;;;;;;;;;;;-142.75;100.00;76064.44;5094625;28;20374;-72
2022/07/19 06:01:50;;;;;;;;;;;;;;;-142.75;100.00;76054.59;5094901;28;20006;-72
2022/07/19 06:04:15;;;;;;;;;;;;;;;-142.75;100.00;76046.72;5094244;28;19916;-71
2022/07/19 06:06:41;;;;;;;;;;;;;;;-142.75;100.00;76046.72;5093763;28;20388;-72
2022/07/19 06:09:07;;;;;;;;;;;;;;;-142.75;100.00;76032.94;5090024;28;19923;-72
2022/07/19 06:11:33;;;;;;;;;;;;;;;-142.75;100.00;76019.16;5093549;28;19916;-72
2022/07/19 06:13:58;;;;;;;;;;;;;;;-142.75;100.00;76007.34;5093652;28;20640;-72
2022/07/19 06:16:24;;;;;;;;;;;;;;;-142.75;100.00;75995.53;5093558;28;19920;-72
2022/07/19 06:18:49;;;;;;;;;;;;;;;-142.75;100.00;75983.72;5093293;28;19999;-72
2022/07/19 06:21:15;;;;;;;;;;;;;;;-142.75;100.00;75975.84;5093427;28;20404;-72
2022/07/19 06:23:41;;;;;;;;;;;;;;;-142.75;100.00;75969.94;5092859;28;19920;-71
2022/07/19 06:26:07;;;;;;;;;;;;;;;-142.75;100.00;75952.25;5093345;28;20339;-71
2022/07/19 06:28:32;;;;;;;;;;;;;;;-142.75;100.00;75940.44;5093235;28;20014;-72
2022/07/19 06:30:57;;;;;;;;;;;;;;;-142.75;100.00;75930.59;5092191;28;19924;-71
2022/07/19 06:33:23;;;;;;;;;;;;;;;-142.75;100.00;75916.81;5094292;28;19920;-72
2022/07/19 06:35:48;;;;;;;;;;;;;;;-142.75;100.00;75905.00;5094202;28;20343;-71
2022/07/19 06:38:13;;;;;;;;;;;;;;;-142.75;100.00;75881.38;5093796;28;19912;-72
2022/07/19 06:40:39;;;;;;;;;;;;;;;-142.75;100.00;75863.66;5093054;28;19951;-71
2022/07/19 06:43:04;;;;;;;;;;;;;;;-142.75;100.00;75838.09;5094022;28;19912;-72
2022/07/19 06:45:29;;;;;;;;;;;;;;;-142.75;100.00;75802.66;5093966;28;19913;-72
2022/07/19 06:47:54;;;;;;;;;;;;;;;-142.75;100.00;75786.91;5093748;28;20380;-72
2022/07/19 06:50:20;;;;;;;;;;;;;;;-142.75;100.00;75767.22;5093934;28;20383;-72
2022/07/19 06:52:46;;;;;;;;;;;;;;;-142.75;100.00;75737.72;5093732;28;19974;-71
2022/07/19 06:55:11;;;;;;;;;;;;;;;-142.75;100.00;75712.13;5093652;28;20392;-72
2022/07/19 06:57:36;;;;;;;;;;;;;;;-142.75;100.00;75686.53;5093481;28;19923;-71
2022/07/19 07:00:02;;;;;;;;;;;;;;;-142.75;100.00;75668.84;5093438;28;19916;-72
2022/07/19 07:02:27;;;;;;;;;;;;;;;-142.75;100.00;75647.19;5093558;28;19912;-72
2022/07/19 07:04:52;;;;;;;;;;;;;;;-142.75;100.00;75629.47;5092316;28;19916;-72
2022/07/19 07:07:17;;;;;;;;;;;;;;;-142.75;100.00;75607.81;5093536;28;19920;-72
2022/07/19 07:09:43;;;;;;;;;;;;;;;-142.75;100.00;75588.16;5093183;28;19920;-72
2022/07/19 07:12:09;;;;;;;;;;;;;;;-142.75;100.00;75574.38;5092207;28;19913;-70
2022/07/19 07:14:35;;;;;;;;;;;;;;;-142.75;100.00;75558.63;5092124;28;19922;-67
2022/07/19 07:17:00;;;;;;;;;;;;;;;-142.75;100.00;75550.75;5093379;28;19920;-69
2022/07/19 07:19:25;;;;;;;;;;;;;;;-142.75;100.00;75535.00;5092914;28;19912;-69
2022/07/19 07:21:50;;;;;;;;;;;;;;;-142.75;100.00;75523.19;5091944;28;20006;-69
2022/07/19 07:24:16;;;;;;;;;;;;;;;-142.75;100.00;75507.47;5093149;28;19912;-69
2022/07/19 07:26:41;;;;;;;;;;;;;;;-142.75;98.45;75491.72;5093009;28;20289;-69
2022/07/19 07:29:06;;;;;;;;;;;;;;;-142.75;99.80;75479.91;5092088;28;19923;-67
2022/07/19 07:31:31;;;;;;;;;;;;;;;-142.75;94.03;75474.00;5093207;28;20376;-69
2022/07/19 07:33:57;;;;;;;;;;;;;;;-142.75;94.24;75475.97;5091536;28;20378;-71
2022/07/19 07:36:22;;;;;;;;;;;;;;;-142.75;92.17;75475.97;5091215;28;20024;-71
2022/07/19 07:38:47;;;;;;;;;;;;;;;-142.75;93.66;75466.13;5091324;28;19916;-70
2022/07/19 07:41:12;;;;;;;;;;;;;;;-142.75;91.55;75460.22;5092994;28;19916;-72
2022/07/19 07:43:38;;;;;;;;;;;;;;;-142.75;93.26;75456.28;5091639;28;19912;-71
2022/07/19 07:46:03;;;;;;;;;;;;;;;-142.75;93.18;75456.28;5092835;28;20263;-71
2022/07/19 07:48:28;;;;;;;;;;;;;;;-142.75;91.71;75448.41;5092523;28;19912;-71
2022/07/19 07:50:54;;;;;;;;;;;;;;;-142.75;89.51;75440.53;5092841;28;19916;-71
2022/07/19 07:53:19;;;;;;;;;;;;;;;-142.75;89.36;75424.81;5092435;28;19962;-72
2022/07/19 07:55:44;;;;;;;;;;;;;;;-142.75;82.46;75409.06;5092678;28;19956;-72
2022/07/19 07:58:10;;;;;;;;;;;;;;;-142.75;79.87;75403.16;5092459;28;20021;-71
2022/07/19 08:00:36;;;;;;;;;;;;;;;-142.75;81.08;75405.13;5092736;28;19965;-73
2022/07/19 08:03:02;;;;;;;;;;;;;;;-142.75;83.46;75387.41;5091376;28;19912;-70
2022/07/19 08:05:27;;;;;;;;;;;;;;;-142.75;82.89;75363.78;5091238;28;20003;-71
2022/07/19 08:07:53;;;;;;;;;;;;;;;-142.75;87.69;75346.09;5092184;28;20345;-70
2022/07/19 08:10:19;;;;;;;;;;;;;;;-142.75;81.01;75328.38;5091278;28;19965;-72
2022/07/19 08:12:44;;;;;;;;;;;;;;;-142.75;80.21;75328.38;5092552;28;20002;-72
2022/07/19 08:15:09;;;;;;;;;;;;;;;-142.75;78.47;75314.59;5091141;28;19916;-72
2022/07/19 08:17:35;;;;;;;;;;;;;;;-142.75;79.97;75306.72;5092340;28;19918;-72
2022/07/19 08:20:00;;;;;;;;;;;;;;;-142.75;78.78;75292.97;5092153;28;19915;-72
2022/07/19 08:22:25;;;;;;;;;;;;;;;-142.75;83.60;75267.38;5090986;28;19912;-69
2022/07/19 08:24:50;;;;;;;;;;;;;;;-142.75;80.61;75245.72;5092427;28;19919;-73
2022/07/19 08:27:16;;;;;;;;;;;;;;;-142.75;80.36;75228.00;5092328;28;19916;-72
2022/07/19 08:29:41;;;;;;;;;;;;;;;-142.75;77.00;75216.22;5090646;28;19916;-73
2022/07/19 08:32:06;;;;;;;;;;;;;;;-142.75;78.13;75204.41;5090978;28;20439;-73
2022/07/19 08:34:31;;;;;;;;;;;;;;;-142.75;74.40;75188.66;5090858;28;19916;-72
2022/07/19 08:36:56;;;;;;;;;;;;;;;-142.75;69.46;75174.88;5092019;28;20335;-72
2022/07/19 08:39:22;;;;;;;;;;;;;;;-142.75;70.10;75157.19;5091828;28;19970;-71
2022/07/19 08:41:47;;;;;;;;;;;;;;;-142.75;71.18;75133.56;5092175;28;20366;-72
2022/07/19 08:44:13;;;;;;;;;;;;;;;-142.75;70.69;75115.84;5092208;28;19920;-71
2022/07/19 08:46:41;;;;;;;;;;;;;;;-142.75;68.64;75102.06;5093965;28;19919;-71
2022/07/19 08:49:08;;;;;;;;;;;;;;;-142.75;65.93;75084.38;5096000;28;19912;-71
2022/07/19 08:51:34;;;;;;;;;;;;;;;-142.75;64.72;75070.59;5096187;28;20019;-71
2022/07/19 08:53:59;;;;;;;;;;;;;;;-142.75;65.39;75064.69;5096136;28;20003;-72
2022/07/19 08:59:08;;;;;;;;;;;;;;;-142.75;64.90;75025.34;5095137;28;20007;-72
2022/07/19 09:01:34;;;;;;;;;;;;;;;-142.75;66.27;75007.63;5095075;28;20391;-70
2022/07/19 09:04:14;;;;;;;;;;;;;;;-142.75;64.76;74995.81;5095114;28;19912;-71
2022/07/19 09:06:40;;;;;;;;;;;;;;;-142.75;64.60;74978.13;5095053;28;20328;-71
2022/07/19 09:09:05;;;;;;;;;;;;;;;-142.75;63.96;74954.50;5094667;28;19951;-71
2022/07/19 09:11:48;;;;;;;;;;;;;;;-142.75;62.31;74944.66;5094908;28;20396;-71
2022/07/19 09:14:14;;;;;;;;;;;;;;;-142.75;63.92;74907.28;5093310;28;19920;-71
2022/07/19 09:17:02;;;;;;;;;;;;;;;-142.75;66.54;74881.69;5093456;28;19912;-70
2022/07/19 09:19:29;;;;;;;;;;;;;;;-142.75;61.17;74869.88;5082378;28;20404;-71
2022/07/19 09:22:03;;;;;;;;;;;;;;;-142.75;64.67;74846.28;5094597;28;20011;-70
2022/07/19 09:24:30;;;;;;;;;;;;;;;-142.75;62.32;74848.25;5093400;28;19951;-71
2022/07/19 09:26:57;;;;;;;;;;;;;;;-142.75;61.08;74826.59;5093251;28;19912;-71
2022/07/19 09:29:22;;;;;;;;;;;;;;;-142.75;61.00;74824.63;5092869;28;20290;-71
2022/07/19 09:31:57;;;;;;;;;;;;;;;-142.75;60.26;74824.63;5093273;28;19923;-71
2022/07/19 09:34:26;;;;;;;;;;;;;;;-142.75;61.27;74806.94;5094407;28;19917;-72
2022/07/19 09:37:06;;;;;;;;;;;;;;;-142.75;58.63;74789.22;5092989;28;19949;-69
2022/07/19 09:39:31;;;;;;;;;;;;;;;-142.75;57.82;74777.41;5093379;28;20267;-70
2022/07/19 09:41:57;;;;;;;;;;;;;;;-142.75;61.06;74751.84;5095307;28;19923;-71
2022/07/19 09:44:22;;;;;;;;;;;;;;;-142.75;57.54;74734.13;5095310;28;19956;-71
2022/07/19 09:46:50;;;;;;;;;;;;;;;-142.75;59.15;74728.22;5095085;28;20048;-69
2022/07/19 09:49:17;;;;;;;;;;;;;;;-142.75;57.82;74726.25;5094831;28;19919;-72
2022/07/19 09:51:45;;;;;;;;;;;;;;;-142.75;59.00;74728.22;5095084;28;20343;-72
2022/07/19 09:54:12;;;;;;;;;;;;;;;-142.75;59.01;74706.59;5094806;28;19916;-72
2022/07/19 09:56:38;;;;;;;;;;;;;;;-142.75;58.54;74673.13;5105376;22;20455;-71
2022/07/19 09:59:03;;;;;;;;;;;;;;;-142.75;59.03;74661.31;5051638;28;19916;-70
2022/07/19 10:01:29;;;;;;;;;;;;;;;-142.75;57.74;74667.22;5055112;28;20359;-71
2022/07/19 10:03:57;;;;;;;;;;;;;;;-142.75;58.16;74637.72;5055237;28;19916;-70
2022/07/19 10:06:24;;;;;;;;;;;;;;;-142.75;58.42;74653.47;5059592;28;20310;-70
2022/07/19 10:08:50;;;;;;;;;;;;;;;-142.75;59.09;74645.59;5054589;28;19920;-70
2022/07/19 10:11:15;;;;;;;;;;;;;;;-142.75;58.35;74618.03;5054883;28;19921;-70
2022/07/19 10:13:41;;;;;;;;;;;;;;;-142.75;59.10;74633.78;5054765;28;19916;-70
2022/07/19 10:16:07;;;;;;;;;;;;;;;-142.75;59.15;74625.91;5055311;28;19966;-72
2022/07/19 10:18:35;;;;;;;;;;;;;;;-142.75;59.13;74618.03;5053458;28;20393;-68
2022/07/19 10:21:01;;;;;;;;;;;;;;;-142.75;56.96;74610.16;5052970;28;19920;-68
2022/07/19 10:23:27;;;;;;;;;;;;;;;-142.75;59.86;74602.31;5054305;28;20366;-69
2022/07/19 10:25:52;;;;;;;;;;;;;;;-142.75;57.80;74586.56;5054172;28;19913;-69
2022/07/19 10:28:28;;;;;;;;;;;;;;;-142.75;59.20;74576.72;5053936;28;19913;-69
2022/07/19 10:30:54;;;;;;;;;;;;;;;-142.75;59.37;74584.59;5054149;28;20272;-70
2022/07/19 10:33:38;;;;;;;;;;;;;;;-142.75;58.82;74574.75;5054087;28;19920;-70
2022/07/19 10:36:22;;;;;;;;;;;;;;;-142.75;59.11;74543.28;5052668;28;19913;-68
2022/07/19 10:39:05;;;;;;;;;;;;;;;-142.75;59.32;74539.34;5053702;28;20015;-68
2022/07/19 10:41:31;;;;;;;;;;;;;;;-142.75;57.96;74527.53;5054351;28;19920;-69
2022/07/19 10:44:09;;;;;;;;;;;;;;;-142.75;52.78;74511.78;5053819;28;20036;-70
2022/07/19 10:46:34;;;;;;;;;;;;;;;-142.75;51.00;74496.06;5053738;28;19920;-69
2022/07/19 10:48:59;;;;;;;;;;;;;;;-142.75;47.81;74490.16;5053344;28;20398;-69
2022/07/19 10:51:28;;;;;;;;;;;;;;;-142.75;48.14;74478.34;5053288;28;19913;-69
2022/07/19 10:53:55;;;;;;;;;;;;;;;-142.75;52.44;74464.56;5053666;28;20347;-70
2022/07/19 10:56:22;;;;;;;;;;;;;;;-142.75;51.24;74476.38;5053434;28;20028;-69
2022/07/19 10:58:48;;;;;;;;;;;;;;;-142.75;51.43;74476.38;5053306;28;19923;-71
2022/07/19 11:01:18;;;;;;;;;;;;;;;-142.75;52.38;74446.88;5053588;28;19913;-69
2022/07/19 11:03:43;;;;;;;;;;;;;;;-142.75;51.31;74423.25;5052156;28;19963;-70
2022/07/19 11:06:17;;;;;;;;;;;;;;;-142.75;50.76;74425.22;5052047;28;19913;-69
2022/07/19 11:08:43;;;;;;;;;;;;;;;-142.75;49.83;74417.34;5053036;28;19919;-69
2022/07/19 11:11:15;;;;;;;;;;;;;;;-142.75;50.20;74440.97;5053161;28;20362;-69
2022/07/19 11:13:43;;;;;;;;;;;;;;;-142.75;52.42;74440.97;5053110;28;19921;-69
2022/07/19 11:16:08;;;;;;;;;;;;;;;-142.75;51.54;74444.91;5053378;28;19924;-70
2022/07/19 11:18:34;;;;;;;;;;;;;;;-142.75;53.17;74433.09;5052917;28;19917;-69
2022/07/19 11:21:00;;;;;;;;;;;;;;;-142.75;55.84;74393.75;5053034;28;20394;-70
2022/07/19 11:23:29;;;;;;;;;;;;;;;-142.75;46.30;74405.56;5051633;28;20004;-70
2022/07/19 11:26:07;;;;;;;;;;;;;;;-142.75;48.20;74409.50;5052846;28;19928;-69
2022/07/19 11:28:32;;;;;;;;;;;;;;;-142.75;46.54;74419.31;5052651;28;20007;-69
2022/07/19 11:30:57;;;;;;;;;;;;;;;-142.75;48.24;74393.75;5052862;28;20424;-69
2022/07/19 11:33:22;;;;;;;;;;;;;;;-142.75;43.14;74374.06;5052736;28;19995;-69
2022/07/19 11:36:00;;;;;;;;;;;;;;;-142.75;41.16;74381.94;5052780;28;19912;-69
2022/07/19 11:38:44;;;;;;;;;;;;;;;-142.75;44.54;74358.34;5052313;28;19916;-69
2022/07/19 11:41:13;;;;;;;;;;;;;;;-142.75;47.40;74362.28;5052445;28;20007;-69
2022/07/19 11:43:39;;;;;;;;;;;;;;;-142.75;42.14;74358.34;5052557;28;19920;-70
2022/07/19 11:46:04;;;;;;;;;;;;;;;-142.75;40.03;74366.22;5052588;28;20302;-70
2022/07/19 11:48:30;;;;;;;;;;;;;;;-142.75;43.33;74352.44;5052175;28;19920;-69
2022/07/19 11:51:04;;;;;;;;;;;;;;;-142.75;45.75;74326.84;5052547;28;19999;-69
2022/07/19 11:53:30;;;;;;;;;;;;;;;-142.75;39.18;74336.69;5052472;28;19913;-69
2022/07/19 11:55:56;;;;;;;;;;;;;;;-142.75;38.96;74324.88;5052577;28;20383;-69
2022/07/19 11:58:22;;;;;;;;;;;;;;;-142.75;41.45;74309.16;5052287;28;19913;-69
2022/07/19 12:00:48;;;;;;;;;;;;;;;-142.75;44.38;74301.28;5052505;28;19916;-69
2022/07/19 12:03:16;;;;;;;;;;;;;;;-142.75;39.39;74297.34;5052362;28;19912;-69
2022/07/19 12:05:53;;;;;;;;;;;;;;;-142.75;39.07;74297.34;5052468;28;19912;-69
2022/07/19 12:08:18;;;;;;;;;;;;;;;-142.75;38.93;74289.47;5052461;28;19920;-68
2022/07/19 12:10:50;;;;;;;;;;;;;;;-142.75;42.92;74285.53;5052425;28;19916;-68
2022/07/19 12:13:30;;;;;;;;;;;;;;;-142.75;38.73;74295.38;5052171;28;19920;-69
2022/07/19 12:15:56;;;;;;;;;;;;;;;-142.75;37.91;74275.72;5052094;28;19912;-68
2022/07/19 12:18:23;;;;;;;;;;;;;;;-142.75;38.59;74265.88;5051917;28;19912;-68